Time;durP1;ratioP1;P1;durP2;ratioP2;P2;SDS_P1;SDS_P2;PMS_P1;PMS_P2;Temp;Humidity;BMP_temperature;BMP_pressure;BME280_temperature;BME280_humidity;BME280_pressure;Samples;Min_cycle;Max_cycle;Signal;HPM_P1;HPM_P2
2021/09/17 00:01:12;;;;;;;11.50;6.13;;;14.20;94.20;;;;;;5032052;28;20196;-76
2021/09/17 00:03:38;;;;;;;9.00;5.30;;;14.20;94.10;;;;;;5031693;28;20940;-76
2021/09/17 00:06:04;;;;;;;8.43;6.20;;;14.30;94.10;;;;;;5032180;28;20205;-77
2021/09/17 00:08:30;;;;;;;10.87;5.47;;;14.30;94.00;;;;;;5032468;28;20185;-76
2021/09/17 00:10:56;;;;;;;10.90;6.07;;;14.30;94.10;;;;;;5040587;28;20185;-76
2021/09/17 00:13:22;;;;;;;10.60;5.97;;;14.40;94.20;;;;;;5033734;28;20756;-75
2021/09/17 00:15:47;;;;;;;10.70;5.27;;;14.50;93.90;;;;;;5039543;28;20507;-76
2021/09/17 00:18:13;;;;;;;8.47;5.53;;;14.50;93.50;;;;;;5034645;28;20200;-76
2021/09/17 00:20:39;;;;;;;8.00;4.83;;;14.40;93.50;;;;;;5040697;28;20663;-76
2021/09/17 00:23:05;;;;;;;11.27;5.50;;;14.50;93.70;;;;;;5041880;28;20421;-74
2021/09/17 00:25:31;;;;;;;8.00;5.00;;;14.40;93.70;;;;;;5041024;28;20226;-76
2021/09/17 00:27:57;;;;;;;8.13;5.30;;;14.50;93.70;;;;;;5042485;28;20196;-75
2021/09/17 00:30:25;;;;;;;7.73;4.10;;;14.50;93.70;;;;;;5048641;28;20427;-76
2021/09/17 00:32:51;;;;;;;5.90;4.27;;;14.50;93.30;;;;;;5049330;28;20174;-76
2021/09/17 00:35:16;;;;;;;9.13;4.20;;;14.60;92.90;;;;;;5049943;28;20424;-75
2021/09/17 00:37:42;;;;;;;6.33;4.20;;;14.50;92.70;;;;;;5051267;28;20215;-78
2021/09/17 00:40:09;;;;;;;7.37;4.00;;;14.60;92.70;;;;;;5048923;28;20651;-75
2021/09/17 00:42:37;;;;;;;7.73;4.27;;;14.60;92.40;;;;;;5035313;28;20431;-76
2021/09/17 00:45:06;;;;;;;7.07;4.93;;;14.60;92.30;;;;;;5031164;28;20495;-76
2021/09/17 00:47:32;;;;;;;8.43;4.70;;;14.60;92.30;;;;;;5024116;28;20420;-76
2021/09/17 00:49:58;;;;;;;5.97;4.30;;;14.60;92.50;;;;;;5030288;28;20527;-76
2021/09/17 00:52:23;;;;;;;10.47;5.80;;;14.60;92.40;;;;;;5029703;28;20561;-76
2021/09/17 00:54:49;;;;;;;8.77;5.47;;;14.60;92.60;;;;;;5028934;28;20193;-76
2021/09/17 00:57:15;;;;;;;9.30;5.73;;;14.50;92.90;;;;;;5028480;28;20197;-76
2021/09/17 00:59:40;;;;;;;11.03;5.67;;;14.60;92.70;;;;;;5026668;28;20214;-76
2021/09/17 01:02:06;;;;;;;9.47;6.00;;;14.60;92.60;;;;;;5027767;28;20272;-76
2021/09/17 01:04:32;;;;;;;7.73;4.90;;;14.60;92.80;;;;;;5030321;28;20182;-77
2021/09/17 01:06:58;;;;;;;8.10;5.90;;;14.60;92.60;;;;;;5028881;28;20205;-76
2021/09/17 01:09:26;;;;;;;9.40;5.90;;;14.50;92.50;;;;;;5030212;28;20844;-76
2021/09/17 01:11:52;;;;;;;8.43;5.50;;;14.30;92.70;;;;;;5030330;28;20428;-76
2021/09/17 01:14:19;;;;;;;8.10;5.10;;;14.40;92.80;;;;;;5028570;28;20440;-77
2021/09/17 01:16:45;;;;;;;9.10;5.30;;;14.30;92.70;;;;;;5029795;28;20263;-75
2021/09/17 01:19:11;;;;;;;8.60;6.10;;;14.20;92.90;;;;;;5029926;28;20499;-76
2021/09/17 01:21:36;;;;;;;9.53;6.20;;;14.20;93.00;;;;;;5030463;28;20197;-76
2021/09/17 01:24:03;;;;;;;8.60;5.53;;;14.20;93.30;;;;;;5029684;28;20428;-76
2021/09/17 01:26:29;;;;;;;8.03;4.67;;;14.30;93.10;;;;;;5029318;28;20679;-76
2021/09/17 01:28:55;;;;;;;11.20;5.10;;;14.40;92.90;;;;;;5028678;28;20479;-77
2021/09/17 01:31:21;;;;;;;9.70;5.27;;;14.40;93.00;;;;;;5030168;28;20197;-76
2021/09/17 01:33:47;;;;;;;6.93;4.33;;;14.50;93.10;;;;;;5029816;28;20440;-75
2021/09/17 01:36:13;;;;;;;8.10;4.73;;;14.50;93.00;;;;;;5029017;28;20233;-76
2021/09/17 01:38:40;;;;;;;6.47;4.50;;;14.60;93.00;;;;;;5021357;28;20211;-76
2021/09/17 01:41:07;;;;;;;8.57;4.37;;;14.60;92.80;;;;;;5025809;28;20193;-77
2021/09/17 01:43:33;;;;;;;8.20;4.83;;;14.60;92.80;;;;;;5024625;28;20416;-76
2021/09/17 01:45:59;;;;;;;13.27;5.47;;;14.70;92.70;;;;;;5029523;28;20510;-76
2021/09/17 01:48:30;;;;;;;9.30;5.17;;;14.70;92.60;;;;;;5027358;28;20424;-76
2021/09/17 01:50:55;;;;;;;9.00;5.10;;;14.80;92.50;;;;;;5025772;28;20191;-75
2021/09/17 01:53:21;;;;;;;10.00;5.80;;;14.80;92.30;;;;;;5022365;28;20432;-76
2021/09/17 01:55:47;;;;;;;7.50;4.90;;;14.70;92.10;;;;;;5031817;28;20492;-76
2021/09/17 01:58:13;;;;;;;9.40;5.50;;;14.80;92.30;;;;;;5033547;28;20216;-77
2021/09/17 02:00:38;;;;;;;7.77;5.00;;;14.80;92.30;;;;;;5033748;28;20191;-76
2021/09/17 02:03:04;;;;;;;5.73;4.07;;;14.80;92.30;;;;;;5028805;28;20187;-76
2021/09/17 02:05:30;;;;;;;11.13;5.90;;;14.80;92.20;;;;;;5023908;28;20205;-76
2021/09/17 02:07:57;;;;;;;7.60;4.83;;;14.70;92.30;;;;;;5033738;28;20196;-76
2021/09/17 02:10:24;;;;;;;8.73;5.00;;;14.70;92.30;;;;;;5032733;28;20189;-76
2021/09/17 02:12:49;;;;;;;5.70;4.40;;;14.80;92.50;;;;;;5027892;28;20429;-75
2021/09/17 02:15:15;;;;;;;7.50;4.73;;;14.70;92.60;;;;;;5029960;28;20436;-76
2021/09/17 02:17:41;;;;;;;7.20;4.60;;;14.70;92.80;;;;;;5032977;28;20208;-76
2021/09/17 02:20:08;;;;;;;7.03;4.37;;;14.80;92.80;;;;;;5033875;28;20214;-77
2021/09/17 02:22:34;;;;;;;6.30;4.37;;;14.90;92.60;;;;;;5033216;28;20266;-77
2021/09/17 02:25:01;;;;;;;8.33;4.80;;;15.00;92.60;;;;;;5029113;28;20437;-76
2021/09/17 02:27:28;;;;;;;4.10;3.83;;;15.00;92.40;;;;;;5034259;28;21039;-76
2021/09/17 02:29:53;;;;;;;5.73;4.10;;;15.10;92.30;;;;;;5033481;28;20531;-76
2021/09/17 02:32:19;;;;;;;7.37;4.90;;;15.10;92.00;;;;;;5032675;28;20441;-75
2021/09/17 02:34:45;;;;;;;10.00;4.77;;;15.00;91.80;;;;;;5032678;28;20207;-76
2021/09/17 02:37:11;;;;;;;9.10;5.03;;;15.00;91.80;;;;;;5033552;28;20232;-75
2021/09/17 02:39:37;;;;;;;10.00;5.17;;;14.90;92.00;;;;;;5035104;28;20213;-76
2021/09/17 02:42:04;;;;;;;6.40;4.33;;;15.00;92.00;;;;;;5029723;28;20934;-75
2021/09/17 02:44:30;;;;;;;12.73;5.10;;;15.10;91.80;;;;;;5028500;28;20437;-76
2021/09/17 02:46:56;;;;;;;8.23;5.27;;;15.20;91.70;;;;;;5039274;28;20440;-76
2021/09/17 02:49:22;;;;;;;10.57;5.23;;;15.20;91.90;;;;;;5036592;28;20439;-76
2021/09/17 02:51:47;;;;;;;7.20;4.87;;;15.20;91.70;;;;;;5036604;28;20197;-75
2021/09/17 02:54:13;;;;;;;6.10;4.30;;;15.30;91.70;;;;;;5034791;28;20602;-76
2021/09/17 02:56:39;;;;;;;8.53;5.87;;;15.30;91.50;;;;;;5035297;28;20459;-74
2021/09/17 02:59:05;;;;;;;9.07;5.50;;;15.30;91.30;;;;;;5035295;28;20208;-76
2021/09/17 03:01:31;;;;;;;8.50;5.40;;;15.30;91.00;;;;;;5034525;28;20178;-76
2021/09/17 03:03:56;;;;;;;8.30;5.60;;;15.30;91.00;;;;;;5033389;28;20763;-77
2021/09/17 03:06:25;;;;;;;8.17;5.60;;;15.30;91.00;;;;;;5030889;28;20550;-76
2021/09/17 03:08:51;;;;;;;7.00;4.67;;;15.40;91.10;;;;;;5032463;28;20192;-76
2021/09/17 03:11:17;;;;;;;6.10;4.60;;;15.30;91.20;;;;;;5029363;28;20425;-76
2021/09/17 03:13:42;;;;;;;9.90;6.03;;;15.30;91.30;;;;;;5032956;28;20190;-76
2021/09/17 03:16:08;;;;;;;7.63;4.57;;;15.30;91.50;;;;;;5028286;28;20463;-76
2021/09/17 03:18:35;;;;;;;14.43;8.90;;;15.40;91.30;;;;;;5025133;28;20213;-77
2021/09/17 03:21:01;;;;;;;18.07;9.10;;;15.30;91.40;;;;;;5027487;28;20186;-77
2021/09/17 03:23:27;;;;;;;14.53;8.50;;;15.20;91.80;;;;;;5032442;28;20438;-76
2021/09/17 03:25:52;;;;;;;15.07;8.77;;;15.20;92.10;;;;;;5031038;28;20445;-77
2021/09/17 03:28:18;;;;;;;14.20;7.97;;;15.10;92.30;;;;;;5032132;28;20460;-77
2021/09/17 03:30:44;;;;;;;12.67;7.80;;;15.10;92.40;;;;;;5034195;28;20186;-77
2021/09/17 03:33:11;;;;;;;16.93;8.53;;;15.10;92.60;;;;;;5032752;28;20186;-76
2021/09/17 03:35:38;;;;;;;8.60;5.40;;;15.20;92.40;;;;;;5031875;28;20216;-76
2021/09/17 03:38:05;;;;;;;9.83;5.67;;;15.20;92.30;;;;;;5035758;28;20424;-76
2021/09/17 03:40:36;;;;;;;9.40;5.87;;;15.20;92.10;;;;;;5029161;28;21121;-75
2021/09/17 03:43:03;;;;;;;10.77;6.00;;;15.20;92.10;;;;;;5034567;28;20511;-76
2021/09/17 03:45:31;;;;;;;7.97;5.30;;;15.20;92.20;;;;;;5025838;28;20440;-76
2021/09/17 03:47:58;;;;;;;11.10;5.80;;;15.20;92.20;;;;;;5040691;28;20416;-76
2021/09/17 03:50:23;;;;;;;8.53;5.50;;;15.20;92.30;;;;;;5029733;28;20445;-76
2021/09/17 03:52:49;;;;;;;8.50;4.63;;;15.20;92.30;;;;;;5034558;28;20434;-76
2021/09/17 03:55:15;;;;;;;16.20;6.30;;;15.20;92.40;;;;;;5041642;28;20191;-76
2021/09/17 03:57:40;;;;;;;9.90;5.90;;;15.20;92.40;;;;;;5038317;28;20183;-77
2021/09/17 04:00:07;;;;;;;8.17;5.37;;;15.20;92.40;;;;;;5036518;28;20306;-76
2021/09/17 04:02:32;;;;;;;7.63;5.43;;;15.20;92.20;;;;;;5036414;28;20266;-78
2021/09/17 04:04:58;;;;;;;11.13;4.80;;;15.20;92.40;;;;;;5034183;28;20425;-76
2021/09/17 04:07:24;;;;;;;8.67;5.80;;;15.20;92.30;;;;;;5033732;28;20286;-80
2021/09/17 04:09:50;;;;;;;10.00;5.70;;;15.20;92.40;;;;;;5033455;28;20272;-77
2021/09/17 04:12:15;;;;;;;7.47;5.03;;;15.30;92.20;;;;;;5032160;28;20183;-78
2021/09/17 04:14:41;;;;;;;11.03;5.47;;;15.20;92.20;;;;;;5031432;28;20789;-77
2021/09/17 04:17:07;;;;;;;7.47;5.47;;;15.20;92.40;;;;;;5027690;28;20209;-76
2021/09/17 04:19:36;;;;;;;8.17;5.10;;;15.30;92.20;;;;;;5031973;28;20254;-77
2021/09/17 04:22:04;;;;;;;8.57;5.53;;;15.30;92.20;;;;;;5032096;28;20177;-77
2021/09/17 04:24:29;;;;;;;9.17;5.50;;;15.30;91.90;;;;;;5019707;28;20428;-77
2021/09/17 04:26:55;;;;;;;8.20;5.80;;;15.20;92.00;;;;;;5030282;28;20444;-77
2021/09/17 04:29:21;;;;;;;8.63;5.77;;;15.20;91.80;;;;;;5032745;28;20208;-76
2021/09/17 04:31:46;;;;;;;10.70;5.90;;;15.10;91.80;;;;;;5023546;28;20193;-76
2021/09/17 04:34:12;;;;;;;10.10;5.40;;;14.90;92.00;;;;;;5029837;28;20274;-75
2021/09/17 04:36:38;;;;;;;9.90;6.33;;;14.90;92.30;;;;;;5035022;28;20232;-76
2021/09/17 04:39:04;;;;;;;12.40;5.83;;;14.90;92.20;;;;;;5034351;28;20224;-74
2021/09/17 04:41:29;;;;;;;9.20;5.90;;;14.80;92.40;;;;;;5034248;28;20173;-78
2021/09/17 04:43:55;;;;;;;8.57;5.40;;;14.70;92.80;;;;;;5032659;28;20205;-75
2021/09/17 04:46:21;;;;;;;11.73;5.53;;;14.80;93.00;;;;;;5029368;28;20288;-77
2021/09/17 04:48:46;;;;;;;9.30;5.17;;;14.80;92.90;;;;;;5026713;28;20189;-79
2021/09/17 04:51:12;;;;;;;7.73;5.13;;;14.80;92.90;;;;;;5028087;28;20199;-77
2021/09/17 04:53:38;;;;;;;6.90;5.03;;;14.80;92.90;;;;;;5029608;28;20194;-76
2021/09/17 04:56:03;;;;;;;9.83;6.00;;;14.70;93.00;;;;;;5034169;28;20240;-77
2021/09/17 04:58:29;;;;;;;7.80;5.20;;;14.60;93.30;;;;;;5035102;28;20241;-78
2021/09/17 05:00:55;;;;;;;8.17;5.77;;;14.60;93.80;;;;;;5032375;28;20183;-77
2021/09/17 05:03:21;;;;;;;11.00;6.50;;;14.60;93.80;;;;;;5032942;28;20538;-78
2021/09/17 05:05:46;;;;;;;10.77;6.20;;;14.50;93.90;;;;;;5032749;28;20237;-77
2021/09/17 05:08:12;;;;;;;7.23;5.47;;;14.50;94.20;;;;;;5031523;28;20264;-77
2021/09/17 05:10:38;;;;;;;9.47;5.17;;;14.50;94.40;;;;;;5033605;28;20186;-78
2021/09/17 05:13:04;;;;;;;7.43;5.17;;;14.50;94.50;;;;;;5032432;28;20424;-76
2021/09/17 05:15:29;;;;;;;8.00;5.60;;;14.50;94.50;;;;;;5031371;28;20236;-76
2021/09/17 05:17:55;;;;;;;9.43;6.23;;;14.50;94.50;;;;;;5032515;28;20181;-77
2021/09/17 05:20:21;;;;;;;9.40;5.63;;;14.40;94.50;;;;;;5032981;28;20260;-77
2021/09/17 05:22:46;;;;;;;9.87;6.03;;;14.40;94.50;;;;;;5033329;28;20189;-77
2021/09/17 05:25:12;;;;;;;7.13;5.50;;;14.30;94.60;;;;;;5031885;28;20590;-77
2021/09/17 05:27:39;;;;;;;10.43;5.57;;;14.30;94.70;;;;;;5032844;28;20906;-76
2021/09/17 05:30:06;;;;;;;10.47;5.20;;;14.30;94.80;;;;;;5033838;28;20264;-78
2021/09/17 05:32:32;;;;;;;9.90;6.07;;;14.20;95.00;;;;;;5035646;28;20440;-77
2021/09/17 05:34:57;;;;;;;10.03;6.00;;;14.20;95.10;;;;;;5036057;28;20549;-80
2021/09/17 05:37:23;;;;;;;9.47;6.13;;;14.10;95.00;;;;;;5036016;28;20226;-77
2021/09/17 05:39:49;;;;;;;8.90;6.17;;;14.00;95.10;;;;;;5037058;28;20245;-74
2021/09/17 05:42:15;;;;;;;8.87;5.80;;;14.00;95.20;;;;;;5036726;28;20451;-76
2021/09/17 05:44:40;;;;;;;14.90;6.90;;;13.80;95.20;;;;;;5034691;28;20275;-76
2021/09/17 05:47:06;;;;;;;10.90;6.33;;;13.80;95.50;;;;;;5034156;28;20209;-78
2021/09/17 05:49:32;;;;;;;9.43;6.73;;;13.90;95.60;;;;;;5033681;28;20533;-77
2021/09/17 05:51:58;;;;;;;8.87;6.10;;;14.00;95.50;;;;;;5035407;28;20192;-76
2021/09/17 05:54:23;;;;;;;9.90;6.63;;;14.10;95.50;;;;;;5035357;28;20279;-78
2021/09/17 05:56:49;;;;;;;9.30;6.40;;;14.20;95.40;;;;;;5037639;28;20216;-78
2021/09/17 05:59:15;;;;;;;11.83;6.47;;;14.30;95.10;;;;;;5035240;28;20205;-77
2021/09/17 06:01:40;;;;;;;10.97;6.53;;;14.30;94.90;;;;;;5033561;28;20209;-76
2021/09/17 06:04:06;;;;;;;9.50;6.10;;;14.40;94.60;;;;;;5037582;28;20182;-77
2021/09/17 06:06:32;;;;;;;11.00;6.80;;;14.60;94.40;;;;;;5027667;28;20197;-76
2021/09/17 06:08:58;;;;;;;13.00;7.23;;;14.70;93.60;;;;;;5033435;28;20190;-77
2021/09/17 06:11:24;;;;;;;12.53;7.43;;;14.70;93.30;;;;;;5034950;28;20521;-77
2021/09/17 06:13:49;;;;;;;11.17;7.17;;;14.70;93.10;;;;;;5033721;28;20841;-78
2021/09/17 06:16:15;;;;;;;9.13;6.77;;;14.80;93.20;;;;;;5033076;28;20295;-78
2021/09/17 06:18:41;;;;;;;10.17;6.73;;;14.80;93.00;;;;;;5034697;28;20205;-76
2021/09/17 06:21:07;;;;;;;12.07;6.43;;;14.80;93.00;;;;;;5033968;28;20528;-78
2021/09/17 06:23:32;;;;;;;14.20;6.80;;;14.80;93.10;;;;;;5033606;28;20181;-77
2021/09/17 06:25:58;;;;;;;14.23;7.30;;;14.70;93.10;;;;;;5026662;28;20260;-75
2021/09/17 06:28:25;;;;;;;12.80;7.80;;;14.80;93.10;;;;;;5033065;28;20254;-75
2021/09/17 06:30:51;;;;;;;10.73;7.00;;;14.80;93.00;;;;;;5033496;28;20595;-75
2021/09/17 06:33:16;;;;;;;14.40;7.53;;;14.70;93.00;;;;;;5033526;28;20426;-76
2021/09/17 06:35:42;;;;;;;15.13;7.10;;;14.80;93.10;;;;;;5032510;28;20497;-77
2021/09/17 06:38:08;;;;;;;11.70;7.10;;;14.80;93.00;;;;;;5035009;28;20304;-78
2021/09/17 06:40:34;;;;;;;11.60;7.07;;;14.90;92.90;;;;;;5029688;28;20206;-77
2021/09/17 06:43:01;;;;;;;12.93;7.50;;;15.00;92.70;;;;;;5026072;28;20457;-77
2021/09/17 06:45:27;;;;;;;11.50;7.20;;;15.00;92.70;;;;;;5032219;28;20458;-77
2021/09/17 06:47:55;;;;;;;16.73;7.83;;;15.10;92.70;;;;;;5027337;28;20193;-78
2021/09/17 06:50:25;;;;;;;13.30;7.20;;;15.20;92.40;;;;;;5035348;28;20515;-77
2021/09/17 06:52:53;;;;;;;13.27;6.77;;;15.20;92.20;;;;;;5037489;28;20820;-79
2021/09/17 06:55:21;;;;;;;13.40;7.90;;;15.30;92.30;;;;;;5035869;28;20436;-76
2021/09/17 06:57:49;;;;;;;16.00;7.67;;;15.40;91.80;;;;;;5037623;28;20479;-77
2021/09/17 07:00:17;;;;;;;14.73;7.00;;;15.50;91.80;;;;;;5028634;28;20528;-76
2021/09/17 07:02:43;;;;;;;17.37;7.47;;;15.50;91.80;;;;;;5038531;28;20447;-75
2021/09/17 07:05:09;;;;;;;15.70;8.77;;;15.60;91.50;;;;;;5031200;28;20430;-77
2021/09/17 07:07:35;;;;;;;15.43;8.07;;;15.60;91.40;;;;;;5031153;28;20542;-76
2021/09/17 07:10:03;;;;;;;12.70;8.40;;;15.70;91.20;;;;;;5032920;28;20526;-77
2021/09/17 07:12:28;;;;;;;14.07;8.07;;;15.80;90.90;;;;;;5027837;28;20273;-79
2021/09/17 07:14:54;;;;;;;13.37;7.73;;;15.80;91.10;;;;;;5031674;28;20527;-78
2021/09/17 07:17:20;;;;;;;11.77;7.50;;;15.90;91.10;;;;;;5032731;28;20290;-76
2021/09/17 07:19:45;;;;;;;11.50;7.93;;;16.00;90.50;;;;;;5033713;28;20640;-77
2021/09/17 07:22:11;;;;;;;10.50;6.83;;;16.20;89.90;;;;;;5032183;28;20264;-76
2021/09/17 07:24:37;;;;;;;13.37;7.10;;;16.30;89.70;;;;;;5031672;28;20713;-78
2021/09/17 07:27:03;;;;;;;15.50;8.60;;;16.40;89.20;;;;;;5031575;28;20577;-77
2021/09/17 07:29:29;;;;;;;11.90;7.90;;;16.50;89.00;;;;;;5032681;28;20444;-77
2021/09/17 07:31:54;;;;;;;16.10;8.10;;;16.50;88.90;;;;;;5029750;28;20439;-75
2021/09/17 07:34:20;;;;;;;12.30;7.70;;;16.60;88.00;;;;;;5030726;28;20635;-78
2021/09/17 07:36:55;;;;;;;14.07;8.80;;;16.60;86.90;;;;;;5030274;28;20313;-76
2021/09/17 07:39:21;;;;;;;12.67;8.03;;;16.60;87.80;;;;;;5023194;28;20248;-77
2021/09/17 07:41:47;;;;;;;16.37;9.53;;;16.70;88.30;;;;;;5030193;28;20432;-78
2021/09/17 07:44:13;;;;;;;17.50;10.53;;;16.80;87.40;;;;;;5030411;28;20432;-77
2021/09/17 07:46:39;;;;;;;17.30;9.17;;;17.00;86.00;;;;;;5033063;28;20626;-76
2021/09/17 07:49:04;;;;;;;18.97;10.40;;;17.00;85.50;;;;;;5033754;28;20249;-77
2021/09/17 07:51:30;;;;;;;15.83;9.97;;;17.10;84.70;;;;;;5031637;28;20193;-77
2021/09/17 07:53:56;;;;;;;14.10;8.57;;;17.20;84.10;;;;;;5028244;28;20688;-79
2021/09/17 07:56:21;;;;;;;13.80;9.30;;;17.20;84.10;;;;;;5031117;28;20205;-76
2021/09/17 07:58:47;;;;;;;15.70;8.90;;;17.30;84.30;;;;;;5032687;28;20577;-78
2021/09/17 08:01:13;;;;;;;14.83;9.27;;;17.50;83.70;;;;;;5031450;28;20664;-77
2021/09/17 08:03:39;;;;;;;20.00;9.77;;;17.70;83.30;;;;;;5031103;28;20196;-75
2021/09/17 08:06:06;;;;;;;13.20;8.27;;;17.80;82.20;;;;;;5030547;28;20208;-77
2021/09/17 08:08:32;;;;;;;14.07;8.43;;;17.90;81.50;;;;;;5031968;28;20205;-76
2021/09/17 08:10:57;;;;;;;12.30;8.93;;;18.00;80.90;;;;;;5031857;28;21190;-76
2021/09/17 08:13:23;;;;;;;17.80;9.43;;;18.10;80.50;;;;;;5029885;28;20424;-76
2021/09/17 08:15:49;;;;;;;17.60;10.10;;;18.10;80.20;;;;;;5035657;28;20534;-77
2021/09/17 08:18:15;;;;;;;14.13;8.57;;;18.00;82.40;;;;;;5022435;28;20629;-75
2021/09/17 08:20:48;;;;;;;19.13;10.33;;;18.00;82.70;;;;;;5029999;28;20185;-75
2021/09/17 08:23:19;;;;;;;18.70;11.00;;;18.00;83.40;;;;;;5031992;28;20214;-75
2021/09/17 08:25:46;;;;;;;17.43;10.10;;;17.80;84.10;;;;;;5035198;28;20444;-75
2021/09/17 08:28:11;;;;;;;18.80;10.30;;;17.60;84.70;;;;;;5031967;28;20458;-76
2021/09/17 08:30:37;;;;;;;16.37;9.70;;;17.70;84.70;;;;;;5031832;28;20459;-75
2021/09/17 08:33:03;;;;;;;17.97;10.40;;;17.70;84.60;;;;;;5032211;28;20209;-77
2021/09/17 08:35:28;;;;;;;20.60;10.20;;;17.70;84.10;;;;;;5031174;28;20225;-74
2021/09/17 08:37:54;;;;;;;18.07;10.60;;;17.90;84.30;;;;;;5030458;28;20197;-75
2021/09/17 08:40:20;;;;;;;21.43;9.90;;;18.00;83.40;;;;;;5031101;28;20631;-76
2021/09/17 08:42:47;;;;;;;20.10;11.00;;;18.00;83.30;;;;;;5030149;28;20185;-74
2021/09/17 08:45:12;;;;;;;22.90;11.70;;;18.10;83.00;;;;;;5031295;28;20432;-76
2021/09/17 08:47:39;;;;;;;18.77;11.73;;;18.20;82.70;;;;;;5031556;28;20439;-74
2021/09/17 08:50:06;;;;;;;20.40;11.03;;;18.30;82.40;;;;;;5031455;28;20189;-75
2021/09/17 08:52:31;;;;;;;19.40;10.43;;;18.40;82.20;;;;;;5031222;28;20983;-77
2021/09/17 08:54:58;;;;;;;23.80;11.97;;;18.40;81.80;;;;;;5030974;28;20460;-74
2021/09/17 08:57:24;;;;;;;17.50;10.37;;;18.50;81.70;;;;;;5031450;28;20216;-75
2021/09/17 08:59:50;;;;;;;19.43;10.47;;;18.50;80.80;;;;;;5031363;28;20461;-75
2021/09/17 09:02:21;;;;;;;16.83;10.40;;;18.40;81.20;;;;;;5030312;28;20677;-76
2021/09/17 09:04:54;;;;;;;26.43;11.50;;;18.30;81.50;;;;;;5030557;28;20246;-76
2021/09/17 09:07:30;;;;;;;20.23;10.10;;;18.20;81.50;;;;;;5029956;28;20451;-75
2021/09/17 09:10:03;;;;;;;24.13;12.23;;;18.20;81.90;;;;;;5027000;28;20927;-76
2021/09/17 09:12:28;;;;;;;20.70;11.20;;;18.20;81.80;;;;;;5026444;28;20772;-74
2021/09/17 09:15:14;;;;;;;23.17;11.33;;;18.20;82.10;;;;;;5029861;28;20514;-75
2021/09/17 09:17:45;;;;;;;25.50;12.40;;;18.00;83.00;;;;;;5027057;28;20601;-75
2021/09/17 09:20:27;;;;;;;22.73;12.30;;;17.90;83.70;;;;;;5031718;28;20464;-75
2021/09/17 09:23:11;;;;;;;22.97;11.70;;;18.00;83.30;;;;;;5025006;28;21056;-75
2021/09/17 09:25:57;;;;;;;16.73;10.30;;;18.10;83.00;;;;;;5030511;28;20539;-75
2021/09/17 09:28:29;;;;;;;21.93;10.70;;;18.30;82.80;;;;;;5031049;28;20416;-74
2021/09/17 09:30:56;;;;;;;16.23;10.03;;;18.40;82.20;;;;;;5026338;28;20444;-76
2021/09/17 09:33:36;;;;;;;19.60;12.10;;;18.60;81.40;;;;;;5031479;28;20916;-75
2021/09/17 09:36:04;;;;;;;17.57;9.77;;;18.70;81.20;;;;;;5031012;28;20471;-77
2021/09/17 09:38:38;;;;;;;21.63;10.70;;;18.90;80.80;;;;;;5035120;28;21113;-76
2021/09/17 09:41:05;;;;;;;17.57;9.83;;;19.20;79.70;;;;;;5035344;28;20494;-77
2021/09/17 09:43:37;;;;;;;22.90;11.70;;;19.40;79.30;;;;;;5031139;28;20429;-77
2021/09/17 09:46:30;;;;;;;17.73;10.60;;;19.20;78.60;;;;;;5031364;28;20957;-74
2021/09/17 09:48:59;;;;;;;20.40;11.23;;;19.20;79.30;;;;;;5027021;28;20430;-78
2021/09/17 09:51:25;;;;;;;19.43;10.33;;;19.30;79.50;;;;;;5031130;28;20802;-75
2021/09/17 09:53:51;;;;;;;18.00;10.60;;;19.40;78.40;;;;;;5027465;28;20518;-76
2021/09/17 09:56:19;;;;;;;18.90;10.73;;;19.50;78.70;;;;;;5030726;28;20580;-75
2021/09/17 09:58:49;;;;;;;20.20;10.47;;;19.60;77.60;;;;;;5031132;28;20470;-75
2021/09/17 10:01:21;;;;;;;19.73;9.83;;;19.60;78.10;;;;;;5030482;28;20875;-77
2021/09/17 10:03:50;;;;;;;14.60;9.60;;;19.80;77.00;;;;;;5030239;28;20427;-75
2021/09/17 10:06:17;;;;;;;24.47;10.70;;;20.00;75.80;;;;;;5029224;28;20463;-75
2021/09/17 10:08:43;;;;;;;19.47;10.50;;;20.00;75.10;;;;;;5031451;28;20424;-75
2021/09/17 10:11:10;;;;;;;19.53;9.63;;;19.90;74.60;;;;;;5030961;28;20442;-75
2021/09/17 10:13:36;;;;;;;15.07;8.90;;;19.70;75.50;;;;;;5031032;28;20436;-76
2021/09/17 10:16:04;;;;;;;18.57;9.43;;;19.70;75.20;;;;;;5030973;28;20458;-77
2021/09/17 10:18:30;;;;;;;14.53;8.93;;;19.80;73.70;;;;;;5031411;28;20435;-75
2021/09/17 10:20:56;;;;;;;19.80;11.00;;;19.80;73.00;;;;;;5037942;28;20480;-76
2021/09/17 10:23:32;;;;;;;18.60;10.47;;;19.80;73.90;;;;;;5034973;28;20419;-75
2021/09/17 10:26:06;;;;;;;17.10;10.00;;;19.90;74.80;;;;;;5034252;28;20209;-75
2021/09/17 10:28:33;;;;;;;16.03;10.23;;;19.90;74.00;;;;;;5026949;28;20906;-74
2021/09/17 10:31:14;;;;;;;18.10;10.37;;;19.80;73.50;;;;;;5062484;28;20550;-75
2021/09/17 10:33:40;;;;;;;14.60;9.83;;;20.00;73.60;;;;;;5034314;28;20427;-75
2021/09/17 10:36:06;;;;;;;16.37;9.30;;;20.20;72.40;;;;;;5034360;28;20475;-76
2021/09/17 10:38:33;;;;;;;15.30;9.27;;;20.30;71.10;;;;;;5033545;28;20194;-77
2021/09/17 10:41:05;;;;;;;14.47;8.67;;;20.30;71.60;;;;;;5034252;28;20428;-76
2021/09/17 10:43:38;;;;;;;16.50;10.13;;;20.40;70.80;;;;;;5032292;28;20427;-77
2021/09/17 10:46:10;;;;;;;15.37;9.40;;;20.40;69.40;;;;;;5035008;28;20443;-76
2021/09/17 10:48:41;;;;;;;14.40;8.20;;;20.40;69.50;;;;;;5036340;28;20432;-75
2021/09/17 10:51:09;;;;;;;11.90;8.07;;;20.30;68.60;;;;;;5037705;28;20423;-75
2021/09/17 10:53:41;;;;;;;14.60;8.27;;;20.50;67.90;;;;;;5038714;28;20428;-76
2021/09/17 10:56:14;;;;;;;14.40;8.70;;;20.40;68.90;;;;;;5038472;28;20444;-75
2021/09/17 10:58:41;;;;;;;13.90;9.00;;;20.40;69.20;;;;;;5034381;28;20420;-75
2021/09/17 11:01:11;;;;;;;15.97;9.87;;;20.30;69.20;;;;;;5034116;28;20423;-74
2021/09/17 11:03:46;;;;;;;14.40;8.63;;;20.30;69.20;;;;;;5034660;28;20436;-75
2021/09/17 11:08:53;;;;;;;15.17;8.57;;;20.10;69.50;;;;;;5033813;28;20455;-76
2021/09/17 11:11:27;;;;;;;15.53;8.80;;;20.20;69.40;;;;;;5033893;28;20427;-76
2021/09/17 11:14:02;;;;;;;16.40;9.83;;;20.00;69.50;;;;;;5033369;28;20458;-75
2021/09/17 11:16:29;;;;;;;12.90;7.70;;;19.70;69.10;;;;;;5033315;28;20442;-77
2021/09/17 11:19:05;;;;;;;9.73;7.40;;;19.60;69.20;;;;;;5031946;28;20560;-74
2021/09/17 11:21:37;;;;;;;10.43;7.67;;;19.60;69.80;;;;;;5026112;28;20466;-75
2021/09/17 11:24:04;;;;;;;10.87;7.40;;;19.70;69.70;;;;;;5031940;28;20420;-76
2021/09/17 11:26:32;;;;;;;17.37;9.10;;;20.00;69.90;;;;;;5033922;28;20537;-76
2021/09/17 11:28:59;;;;;;;12.40;7.90;;;20.20;69.50;;;;;;5033729;28;20423;-76
2021/09/17 11:31:34;;;;;;;13.43;9.20;;;20.30;68.30;;;;;;5033668;28;20408;-74
2021/09/17 11:34:03;;;;;;;16.60;7.80;;;20.30;68.00;;;;;;5033657;28;20501;-75
2021/09/17 11:36:55;;;;;;;11.60;8.00;;;20.40;68.30;;;;;;5025498;28;20524;-75
2021/09/17 11:39:22;;;;;;;13.17;8.00;;;20.50;66.40;;;;;;5026941;28;20551;-77
2021/09/17 11:41:52;;;;;;;13.07;7.83;;;20.50;66.40;;;;;;5031880;28;20416;-78
2021/09/17 11:44:40;;;;;;;11.13;7.10;;;20.60;65.60;;;;;;5032237;28;20448;-78
2021/09/17 11:47:07;;;;;;;10.00;6.77;;;20.70;64.70;;;;;;5028634;28;20435;-77
2021/09/17 11:49:35;;;;;;;10.40;6.20;;;20.70;64.20;;;;;;5031413;28;20927;-78
2021/09/17 11:52:04;;;;;;;7.67;5.13;;;20.80;61.70;;;;;;5034612;28;20489;-78
2021/09/17 11:54:29;;;;;;;8.40;5.40;;;20.90;62.00;;;;;;5032507;28;20424;-77
2021/09/17 11:57:11;;;;;;;7.90;6.07;;;20.90;60.60;;;;;;5026700;28;20441;-78
2021/09/17 11:59:40;;;;;;;10.50;5.43;;;20.30;61.50;;;;;;5026916;28;20209;-78
2021/09/17 12:02:22;;;;;;;8.57;5.27;;;20.20;62.80;;;;;;5030325;28;20485;-77
2021/09/17 12:04:54;;;;;;;8.00;5.40;;;20.20;63.40;;;;;;5028714;28;20953;-77
2021/09/17 12:07:20;;;;;;;8.70;5.00;;;20.30;63.20;;;;;;5031812;28;20482;-77
2021/09/17 12:09:46;;;;;;;10.10;5.80;;;20.50;63.90;;;;;;5030517;28;20427;-78
2021/09/17 12:12:13;;;;;;;9.23;5.33;;;20.70;62.30;;;;;;5032217;28;20443;-77
2021/09/17 12:14:47;;;;;;;8.57;5.47;;;20.90;60.40;;;;;;5031395;28;20265;-77
2021/09/17 12:17:13;;;;;;;5.97;4.40;;;21.00;60.40;;;;;;5032159;28;20955;-77
2021/09/17 12:19:57;;;;;;;8.10;5.40;;;21.10;59.60;;;;;;5032277;28;20468;-77
2021/09/17 12:22:46;;;;;;;9.13;5.40;;;21.00;58.80;;;;;;5038679;28;20611;-78
2021/09/17 12:25:18;;;;;;;7.70;4.37;;;20.90;59.20;;;;;;5031642;28;20448;-78
2021/09/17 12:27:47;;;;;;;7.00;4.90;;;21.10;59.60;;;;;;5024790;28;20789;-78
2021/09/17 12:30:21;;;;;;;6.80;5.40;;;21.50;57.80;;;;;;5025288;28;20793;-78
2021/09/17 12:33:21;;;;;;;5.50;4.10;;;21.70;56.90;;;;;;5026230;28;20432;-79
2021/09/17 12:35:49;;;;;;;5.70;4.10;;;21.60;54.20;;;;;;5025808;28;20467;-78
2021/09/17 12:38:16;;;;;;;5.50;4.10;;;21.20;55.70;;;;;;5032030;28;20435;-78
2021/09/17 12:40:51;;;;;;;8.17;3.90;;;21.00;54.90;;;;;;5033617;28;21016;-78
2021/09/17 12:43:24;;;;;;;7.23;4.63;;;20.90;55.80;;;;;;5031087;28;20484;-77
2021/09/17 12:46:10;;;;;;;6.23;4.63;;;20.90;55.70;;;;;;5035092;28;20441;-77